Terminal Aerodrome Forecast
Issued by NWS Duluth, MN

Home | Current Version | Previous Version | Text Only | Print | Product List | Glossary On
Versions: 1 2 3 4 5 6 7 8 9 10 11 12 13 14
000
FTUS43 KDLH 140535
TAFINL
TAF
KINL 140535Z 1406/1506 22007KT P6SM FEW200 WS018/24040KT
      TEMPO 1406/1407 21011G17KT
     FM141000 23004KT P6SM FEW200
     FM142100 21004KT P6SM SCT200=

USA.gov is the U.S. government's official web portal to all federal, state and local government web resources and services.